New Glarus, WI (53574)

13:46 CDT le 24 octobre 2014 (GMT -0500)
Swisstown | Change Station
CLOSE
Current Station
Stations météorologiques personnelles
Location: New Glarus, WI
Altitude: 875 ft
Stations météo à proximité

Alt. 875 ft 42.82 °N, 89.64 °W | Updated 0 second ago

Couvert
Couvert
59.4 ° F
Paraît 59.4 ° F
N
3.7
Vent Variable Vent de SSO
Gusts 8.7 mph

Aujourd'hui
Haut(e) -- | Bas -- ° F
--% Risque de précip.
Hier
Haut(e) -- | Bas -- ° F
Precip. -- pouce
7:22 AM 6:02 PM
Nouvelle lune, 1% visible
Pression 29.99 pouce
Visibilité 10.0 Miles terrestres
Nuages Couvert 700 ft
Point de rosée 54 ° F
Humidité 82%
Précipitations 0.00 pouce
Profondeur de la couche neigeuse Non disponible.
UV 1 sur 12
Pollen 1.10 sur 12
Qualité de l'air Non disponible.
Flu Activity Sporadic
METAR KEFT 241835Z AUTO 21006KT 10SM OVC007 12/11 A2999 RMK AO2

More Conditions Fewer Conditions

Pression 29.99 pouce
Visibilité 10.0 Miles terrestres
Nuages Couvert 700 ft
Point de rosée 54 ° F
Humidité 82%
Précipitations 0.00 pouce
Profondeur de la couche neigeuse Non disponible.
UV 1 sur 12
Pollen 1.10 sur 12
Qualité de l'air Non disponible.
Flu Activity Sporadic
METAR KEFT 241835Z AUTO 21006KT 10SM OVC007 12/11 A2999 RMK AO2

More Conditions Fewer Conditions

10-Day Weather Forecast

Almanac

Astronomie

Oct. 24, 2014 Lever Coucher
Temps réel 07:22 CDT 18:02 CDT
Crépuscule civil 06:53 CDT 18:30 CDT
Crépuscule nautique 06:20 CDT 19:03 CDT
Crépuscule astronomique 05:47 CDT 19:36 CDT
Lune 08:02 CDT 18:40 CDT
Durée de lumière visible 11h 37m
Longueur du jour
10h 39m
Tomorrow will be 2m 42s shorter.
Nouvelle lune, 1% of the Moon is Illuminated
Aujourd'hui
Nouvelle lune
Oct 30
Premier quartier
Nov 6
Pleine lune
Nov 14
Dernier quartier
Nov 22
Nouveau

Extrêmes aujourd'hui

State Highs State Lows

Community

WunderPhotos

Upload Photos

1,764,634 Photos téléchargées !

Nearby

Épaisseur de neige

Station Depth Altitude
Pas de nouvelles chutes de neige

Activité sismique

Ville Distance Mag. Time & Date
No recent earthquake activity has been reported nearby.
Minimum magnitude displayed is 2.5.

Températures des eaux côtières

Lieu Température
Aucun rapport de station

Stations météo à proximité